createdAt,value
2019-01-14T00:00:20.362Z,998.57
2019-01-14T00:01:20.351Z,998.60
2019-01-14T00:02:20.338Z,998.64
2019-01-14T00:03:20.352Z,998.59
2019-01-14T00:04:20.320Z,998.66
2019-01-14T00:05:20.304Z,998.67
2019-01-14T00:06:20.294Z,998.64
2019-01-14T00:07:20.284Z,998.55
2019-01-14T00:08:20.296Z,998.56
2019-01-14T00:09:23.315Z,998.58
2019-01-14T00:10:20.249Z,998.60
2019-01-14T00:11:20.240Z,998.61
2019-01-14T00:12:20.228Z,998.60
2019-01-14T00:13:20.216Z,998.53
2019-01-14T00:14:20.231Z,998.57
2019-01-14T00:15:20.192Z,998.64
2019-01-14T00:16:20.182Z,998.67
2019-01-14T00:17:20.170Z,998.64
2019-01-14T00:18:20.160Z,998.70
2019-01-14T00:19:20.172Z,998.71
2019-01-14T00:20:20.139Z,998.71
2019-01-14T00:21:20.124Z,998.89
2019-01-14T00:22:20.115Z,998.85
2019-01-14T00:23:20.103Z,998.87
2019-01-14T00:24:20.115Z,998.88
2019-01-14T00:25:20.080Z,998.88
2019-01-14T00:26:20.071Z,998.89
2019-01-14T00:27:20.059Z,999.04
2019-01-14T00:28:20.047Z,998.95
2019-01-14T00:29:20.059Z,999.05
2019-01-14T00:30:20.026Z,998.99
2019-01-14T00:31:20.015Z,998.99
2019-01-14T00:32:20.005Z,999.06
2019-01-14T00:33:19.993Z,999.05
2019-01-14T00:34:20.008Z,998.99
2019-01-14T00:35:19.967Z,998.99
2019-01-14T00:36:19.956Z,999.00
2019-01-14T00:37:19.945Z,999.04
2019-01-14T00:38:19.934Z,998.97
2019-01-14T00:39:19.951Z,998.93
2019-01-14T00:40:19.912Z,999.03
2019-01-14T00:41:19.899Z,999.00
2019-01-14T00:42:19.888Z,998.95
2019-01-14T00:43:19.878Z,998.96
2019-01-14T00:44:19.872Z,998.96
2019-01-14T00:45:19.883Z,999.02
2019-01-14T00:46:19.843Z,999.04
2019-01-14T00:47:19.832Z,998.97
2019-01-14T00:48:19.821Z,999.01
2019-01-14T00:49:19.808Z,999.05
2019-01-14T00:50:19.821Z,999.09
2019-01-14T00:51:19.787Z,999.18
2019-01-14T00:52:19.777Z,999.12
2019-01-14T00:53:19.764Z,999.15
2019-01-14T00:54:19.754Z,999.10
2019-01-14T00:55:19.766Z,999.13
2019-01-14T00:56:19.731Z,999.12
2019-01-14T00:57:19.722Z,999.14
2019-01-14T00:58:19.708Z,999.14
2019-01-14T00:59:19.699Z,999.20
2019-01-14T01:00:19.709Z,999.16
2019-01-14T01:01:19.675Z,999.40
2019-01-14T01:02:19.663Z,999.25
2019-01-14T01:03:19.651Z,999.37
2019-01-14T01:04:19.642Z,999.56
2019-01-14T01:05:19.654Z,999.61
2019-01-14T01:06:24.640Z,999.70
2019-01-14T01:07:20.605Z,999.72
2019-01-14T01:08:19.598Z,999.77
2019-01-14T01:09:19.585Z,999.73
2019-01-14T01:10:19.598Z,999.62
2019-01-14T01:11:19.565Z,999.50
2019-01-14T01:12:19.553Z,999.48
2019-01-14T01:13:19.539Z,999.61
2019-01-14T01:14:19.527Z,999.71
2019-01-14T01:15:19.519Z,999.74
2019-01-14T01:16:19.532Z,999.93
2019-01-14T01:17:19.494Z,999.83
2019-01-14T01:18:19.484Z,999.92
2019-01-14T01:19:19.471Z,999.89
2019-01-14T01:20:19.463Z,999.78
2019-01-14T01:21:19.475Z,999.90
2019-01-14T01:22:19.437Z,1000.08
2019-01-14T01:23:19.427Z,999.92
2019-01-14T01:24:19.415Z,999.96
2019-01-14T01:25:19.404Z,999.91
2019-01-14T01:26:19.418Z,999.90
2019-01-14T01:27:19.382Z,999.92
2019-01-14T01:28:19.371Z,999.91
2019-01-14T01:29:19.361Z,999.84
2019-01-14T01:30:19.351Z,1000.00
2019-01-14T01:31:19.361Z,999.87
2019-01-14T01:32:19.326Z,999.93
2019-01-14T01:33:19.313Z,999.90
2019-01-14T01:34:19.302Z,999.86
2019-01-14T01:35:19.295Z,999.83
2019-01-14T01:36:19.304Z,999.88
2019-01-14T01:37:19.271Z,999.85
2019-01-14T01:38:19.257Z,999.86
2019-01-14T01:39:19.250Z,999.86
2019-01-14T01:40:19.236Z,999.87
2019-01-14T01:41:19.253Z,999.88
2019-01-14T01:42:19.218Z,999.86
2019-01-14T01:43:19.201Z,999.84
2019-01-14T01:44:19.190Z,999.86
2019-01-14T01:45:19.183Z,999.90
2019-01-14T01:46:19.171Z,999.91
2019-01-14T01:47:19.183Z,999.91
2019-01-14T01:48:19.150Z,1000.00
2019-01-14T01:49:19.135Z,999.96
2019-01-14T01:50:19.123Z,1000.04
2019-01-14T01:51:19.112Z,1000.00
2019-01-14T01:52:19.126Z,1000.06
2019-01-14T01:53:19.091Z,999.99
2019-01-14T01:54:19.078Z,999.94
2019-01-14T01:55:19.070Z,1000.10
2019-01-14T01:56:19.057Z,999.94
2019-01-14T01:57:19.071Z,1000.01
2019-01-14T01:58:19.036Z,1000.09
2019-01-14T01:59:19.023Z,1000.09
2019-01-14T02:00:19.012Z,1000.11
2019-01-14T02:01:19.006Z,1000.07
2019-01-14T02:02:19.013Z,1000.09
2019-01-14T02:03:18.979Z,1000.11
2019-01-14T02:04:18.970Z,1000.08
2019-01-14T02:05:18.957Z,1000.21
2019-01-14T02:06:18.945Z,1000.14
2019-01-14T02:07:18.960Z,1000.16
2019-01-14T02:08:18.924Z,1000.20
2019-01-14T02:09:18.915Z,1000.16
2019-01-14T02:10:18.928Z,1000.23
2019-01-14T02:11:18.889Z,1000.14
2019-01-14T02:12:18.878Z,1000.22
2019-01-14T02:13:18.890Z,1000.23
2019-01-14T02:14:18.854Z,1000.24
2019-01-14T02:15:18.866Z,1000.31
2019-01-14T02:16:18.832Z,1000.20
2019-01-14T02:17:18.820Z,1000.24
2019-01-14T02:18:18.835Z,1000.25
2019-01-14T02:19:18.797Z,1000.21
2019-01-14T02:20:18.787Z,1000.26
2019-01-14T02:21:18.782Z,1000.33
2019-01-14T02:22:18.765Z,1000.26
2019-01-14T02:23:18.789Z,1000.28
2019-01-14T02:24:18.743Z,1000.28
2019-01-14T02:25:18.733Z,1000.29
2019-01-14T02:26:18.721Z,1000.28
2019-01-14T02:27:18.709Z,1000.33
2019-01-14T02:28:18.722Z,1000.31
2019-01-14T02:29:18.687Z,1000.35
2019-01-14T02:30:18.682Z,1000.35
2019-01-14T02:31:18.665Z,1000.31
2019-01-14T02:32:18.653Z,1000.41
2019-01-14T02:33:18.664Z,1000.42
2019-01-14T02:34:18.630Z,1000.44
2019-01-14T02:35:18.620Z,1000.44
2019-01-14T02:36:18.610Z,1000.46
2019-01-14T02:37:18.599Z,1000.47
2019-01-14T02:38:18.616Z,1000.43
2019-01-14T02:39:18.576Z,1000.47
2019-01-14T02:40:18.565Z,1000.49
2019-01-14T02:41:18.557Z,1000.48
2019-01-14T02:42:18.540Z,1000.45
2019-01-14T02:43:18.558Z,1000.57
2019-01-14T02:44:18.522Z,1000.54
2019-01-14T02:45:18.507Z,1000.55
2019-01-14T02:46:18.497Z,1000.52
2019-01-14T02:47:18.484Z,1000.53
2019-01-14T02:48:18.473Z,1000.58
2019-01-14T02:49:18.486Z,1000.54
2019-01-14T02:50:18.454Z,1000.61
2019-01-14T02:51:18.442Z,1000.56
2019-01-14T02:52:18.429Z,1000.56
2019-01-14T02:53:18.417Z,1000.60
2019-01-14T02:54:18.432Z,1000.62
2019-01-14T02:55:18.403Z,1000.55
2019-01-14T02:56:18.384Z,1000.59
2019-01-14T02:57:18.373Z,1000.61
2019-01-14T02:58:18.366Z,1000.59
2019-01-14T02:59:18.374Z,1000.61
2019-01-14T03:00:18.338Z,1000.58
2019-01-14T03:01:18.327Z,1000.62
2019-01-14T03:02:18.316Z,1000.66
2019-01-14T03:03:18.307Z,1000.67
2019-01-14T03:04:18.332Z,1000.66
2019-01-14T03:05:18.281Z,1000.74
2019-01-14T03:06:18.272Z,1000.65
2019-01-14T03:07:18.262Z,1000.67
2019-01-14T03:08:18.250Z,1000.64
2019-01-14T03:09:18.261Z,1000.64
2019-01-14T03:10:18.232Z,1000.66
2019-01-14T03:11:18.217Z,1000.63
2019-01-14T03:12:18.207Z,1000.74
2019-01-14T03:13:18.197Z,1000.71
2019-01-14T03:14:18.184Z,1000.66
2019-01-14T03:15:18.196Z,1000.68
2019-01-14T03:16:18.161Z,1000.72
2019-01-14T03:17:18.149Z,1000.85
2019-01-14T03:18:18.138Z,1000.69
2019-01-14T03:19:18.129Z,1000.72
2019-01-14T03:20:18.139Z,1000.73
2019-01-14T03:21:18.103Z,1000.72
2019-01-14T03:22:18.095Z,1000.79
2019-01-14T03:23:18.083Z,1000.72
2019-01-14T03:24:18.070Z,1000.71
2019-01-14T03:25:18.084Z,1000.72
2019-01-14T03:26:18.050Z,1000.70
2019-01-14T03:27:18.037Z,1000.74
2019-01-14T03:28:18.026Z,1000.64
2019-01-14T03:29:18.014Z,1000.62
2019-01-14T03:30:18.033Z,1000.65
2019-01-14T03:31:18.000Z,1000.64
2019-01-14T03:32:17.986Z,1000.62
2019-01-14T03:33:17.970Z,1000.64
2019-01-14T03:34:17.958Z,1000.62
2019-01-14T03:35:17.970Z,1000.61
2019-01-14T03:36:17.936Z,1000.68
2019-01-14T03:37:17.926Z,1000.62
2019-01-14T03:38:17.914Z,1000.62
2019-01-14T03:39:17.902Z,1000.67
2019-01-14T03:40:17.893Z,1000.71
2019-01-14T03:41:17.902Z,1000.71
2019-01-14T03:42:17.867Z,1000.74
2019-01-14T03:43:17.858Z,1001.08
2019-01-14T03:44:17.845Z,1000.77
2019-01-14T03:45:17.835Z,1000.81
2019-01-14T03:46:17.847Z,1000.84
2019-01-14T03:47:17.819Z,1000.97
2019-01-14T03:48:17.802Z,1000.96
2019-01-14T03:49:17.790Z,1001.25
2019-01-14T03:50:17.788Z,1001.08
2019-01-14T03:51:17.793Z,1001.23
2019-01-14T03:52:17.758Z,1001.21
2019-01-14T03:53:17.745Z,1001.18
2019-01-14T03:54:17.735Z,1001.23
2019-01-14T03:55:17.722Z,1001.16
2019-01-14T03:56:17.746Z,1001.17
2019-01-14T03:57:17.700Z,1001.14
2019-01-14T03:58:17.690Z,1001.11
2019-01-14T03:59:17.677Z,1001.20
2019-01-14T04:00:17.667Z,1001.17
2019-01-14T04:01:17.680Z,1001.04
2019-01-14T04:02:17.643Z,1001.13
2019-01-14T04:03:17.632Z,1001.16
2019-01-14T04:04:17.622Z,1001.15
2019-01-14T04:05:17.614Z,1001.15
2019-01-14T04:06:17.624Z,1001.28
2019-01-14T04:07:17.589Z,1001.31
2019-01-14T04:08:17.576Z,1001.26
2019-01-14T04:09:17.564Z,1001.16
2019-01-14T04:10:17.568Z,1001.18
2019-01-14T04:11:17.570Z,1001.21
2019-01-14T04:12:17.534Z,1001.26
2019-01-14T04:13:17.520Z,1001.17
2019-01-14T04:14:17.510Z,1001.18
2019-01-14T04:15:17.500Z,1001.25
2019-01-14T04:16:17.489Z,1001.28
2019-01-14T04:17:17.498Z,1001.21
2019-01-14T04:18:17.467Z,1001.27
2019-01-14T04:19:17.455Z,1001.24
2019-01-14T04:20:17.443Z,1001.23
2019-01-14T04:21:17.432Z,1001.33
2019-01-14T04:22:17.444Z,1001.33
2019-01-14T04:23:17.425Z,1001.33
2019-01-14T04:24:17.400Z,1001.32
2019-01-14T04:25:17.397Z,1001.48
2019-01-14T04:26:17.375Z,1001.36
2019-01-14T04:27:17.388Z,1001.42
2019-01-14T04:28:17.353Z,1001.32
2019-01-14T04:29:17.342Z,1001.43
2019-01-14T04:30:17.334Z,1001.41
2019-01-14T04:31:17.320Z,1001.45
2019-01-14T04:32:17.331Z,1001.44
2019-01-14T04:33:17.302Z,1001.43
2019-01-14T04:34:17.285Z,1001.50
2019-01-14T04:35:17.276Z,1001.47
2019-01-14T04:36:17.262Z,1001.48
2019-01-14T04:37:21.541Z,1001.50
2019-01-14T04:38:17.239Z,1001.57
2019-01-14T04:39:17.230Z,1001.60
2019-01-14T04:40:17.220Z,1001.56
2019-01-14T04:41:17.207Z,1001.57
2019-01-14T04:42:17.205Z,1001.62
2019-01-14T04:43:17.210Z,1001.59
2019-01-14T04:44:17.173Z,1001.61
2019-01-14T04:45:17.167Z,1001.77
2019-01-14T04:46:17.151Z,1001.65
2019-01-14T04:47:17.146Z,1001.59
2019-01-14T04:48:17.151Z,1001.73
2019-01-14T04:49:17.119Z,1001.66
2019-01-14T04:50:17.105Z,1001.62
2019-01-14T04:51:17.094Z,1001.59
2019-01-14T04:52:17.084Z,1001.68
2019-01-14T04:53:17.098Z,1001.60
2019-01-14T04:54:17.063Z,1001.68
2019-01-14T04:55:17.051Z,1001.76
2019-01-14T04:56:17.038Z,1001.74
2019-01-14T04:57:17.028Z,1001.76
2019-01-14T04:58:17.039Z,1001.71
2019-01-14T04:59:17.006Z,1001.79
2019-01-14T05:00:17.018Z,1001.77
2019-01-14T05:01:16.982Z,1001.73
2019-01-14T05:02:16.976Z,1001.80
2019-01-14T05:03:16.982Z,1001.74
2019-01-14T05:04:16.953Z,1001.78
2019-01-14T05:05:16.947Z,1001.76
2019-01-14T05:06:16.925Z,1001.78
2019-01-14T05:07:16.918Z,1001.76
2019-01-14T05:08:16.928Z,1001.78
2019-01-14T05:09:16.892Z,1001.88
2019-01-14T05:10:16.881Z,1001.83
2019-01-14T05:11:16.870Z,1001.92
2019-01-14T05:12:16.863Z,1001.87
2019-01-14T05:13:16.890Z,1001.82
2019-01-14T05:14:16.836Z,1001.83
2019-01-14T05:15:16.825Z,1001.87
2019-01-14T05:16:16.815Z,1001.84
2019-01-14T05:17:16.810Z,1001.99
2019-01-14T05:18:16.814Z,1001.98
2019-01-14T05:19:16.781Z,1001.93
2019-01-14T05:20:16.769Z,1001.97
2019-01-14T05:21:16.763Z,1002.04
2019-01-14T05:22:16.748Z,1002.00
2019-01-14T05:23:16.739Z,1002.01
2019-01-14T05:24:16.749Z,1002.12
2019-01-14T05:25:16.716Z,1002.18
2019-01-14T05:26:16.710Z,1002.17
2019-01-14T05:27:16.691Z,1002.14
2019-01-14T05:28:16.680Z,1002.17
2019-01-14T05:29:16.693Z,1002.24
2019-01-14T05:30:16.658Z,1002.20
2019-01-14T05:31:16.648Z,1002.16
2019-01-14T05:32:16.634Z,1002.13
2019-01-14T05:33:16.624Z,1002.12
2019-01-14T05:34:16.636Z,1002.23
2019-01-14T05:35:16.602Z,1002.26
2019-01-14T05:36:16.598Z,1002.24
2019-01-14T05:37:16.581Z,1002.25
2019-01-14T05:38:16.569Z,1002.30
2019-01-14T05:39:16.583Z,1002.29
2019-01-14T05:40:16.554Z,1002.33
2019-01-14T05:41:16.534Z,1002.35
2019-01-14T05:42:16.524Z,1002.39
2019-01-14T05:43:16.512Z,1002.37
2019-01-14T05:44:16.503Z,1002.33
2019-01-14T05:45:16.514Z,1002.31
2019-01-14T05:46:16.480Z,1002.43
2019-01-14T05:47:16.476Z,1002.36
2019-01-14T05:48:16.458Z,1002.38
2019-01-14T05:49:16.450Z,1002.42
2019-01-14T05:50:16.457Z,1002.43
2019-01-14T05:51:16.421Z,1002.41
2019-01-14T05:52:16.410Z,1002.41
2019-01-14T05:53:16.399Z,1002.40
2019-01-14T05:54:16.390Z,1002.41
2019-01-14T05:55:16.403Z,1002.32
2019-01-14T05:56:16.366Z,1002.33
2019-01-14T05:57:16.356Z,1002.42
2019-01-14T05:58:16.345Z,1002.41
2019-01-14T05:59:16.331Z,1002.43
2019-01-14T06:00:16.344Z,1002.42
2019-01-14T06:01:16.310Z,1002.42
2019-01-14T06:02:16.298Z,1002.41
2019-01-14T06:03:16.289Z,1002.45
2019-01-14T06:04:16.276Z,1002.44
2019-01-14T06:05:16.294Z,1002.45
2019-01-14T06:06:16.258Z,1002.51
2019-01-14T06:07:16.242Z,1002.52
2019-01-14T06:08:16.236Z,1002.57
2019-01-14T06:09:16.218Z,1002.56
2019-01-14T06:10:16.234Z,1002.57
2019-01-14T06:11:16.196Z,1002.56
2019-01-14T06:12:16.184Z,1002.60
2019-01-14T06:13:16.173Z,1002.59
2019-01-14T06:14:16.161Z,1002.63
2019-01-14T06:15:16.152Z,1002.67
2019-01-14T06:16:16.167Z,1002.70
2019-01-14T06:17:16.131Z,1002.76
2019-01-14T06:18:16.116Z,1002.80
2019-01-14T06:19:16.105Z,1002.87
2019-01-14T06:20:16.098Z,1002.88
2019-01-14T06:21:16.106Z,1002.81
2019-01-14T06:22:16.071Z,1002.85
2019-01-14T06:23:16.059Z,1002.79
2019-01-14T06:24:16.049Z,1002.82
2019-01-14T06:25:16.040Z,1002.82
2019-01-14T06:26:16.048Z,1002.85
2019-01-14T06:27:16.013Z,1002.90
2019-01-14T06:28:16.002Z,1002.86
2019-01-14T06:29:15.991Z,1002.84
2019-01-14T06:30:15.980Z,1002.85
2019-01-14T06:31:16.018Z,1002.89
2019-01-14T06:32:15.959Z,1002.89
2019-01-14T06:33:15.946Z,1002.87
2019-01-14T06:34:15.937Z,1002.83
2019-01-14T06:35:15.922Z,1002.83
2019-01-14T06:36:15.939Z,1002.88
2019-01-14T06:37:15.900Z,1002.88
2019-01-14T06:38:15.898Z,1002.96
2019-01-14T06:39:15.877Z,1002.90
2019-01-14T06:40:15.878Z,1002.94
2019-01-14T06:41:15.881Z,1002.99
2019-01-14T06:42:15.845Z,1002.97
2019-01-14T06:43:15.835Z,1002.93
2019-01-14T06:44:15.822Z,1003.04
2019-01-14T06:45:15.810Z,1002.98
2019-01-14T06:46:15.824Z,1002.96
2019-01-14T06:47:15.788Z,1003.02
2019-01-14T06:48:15.778Z,1003.07
2019-01-14T06:49:15.769Z,1003.08
2019-01-14T06:50:15.754Z,1003.06
2019-01-14T06:51:15.767Z,1003.04
2019-01-14T06:52:15.733Z,1003.01
2019-01-14T06:53:15.721Z,1003.15
2019-01-14T06:54:15.709Z,1003.09
2019-01-14T06:55:15.700Z,1003.06
2019-01-14T06:56:15.689Z,1003.11
2019-01-14T06:57:15.701Z,1003.17
2019-01-14T06:58:15.667Z,1003.18
2019-01-14T06:59:15.657Z,1003.18
2019-01-14T07:00:15.642Z,1003.22
2019-01-14T07:01:15.642Z,1003.21
2019-01-14T07:02:15.644Z,1003.25
2019-01-14T07:03:15.607Z,1003.25
2019-01-14T07:04:15.597Z,1003.28
2019-01-14T07:05:15.586Z,1003.25
2019-01-14T07:06:15.576Z,1003.34
2019-01-14T07:07:15.590Z,1003.35
2019-01-14T07:08:15.552Z,1003.42
2019-01-14T07:09:15.541Z,1003.40
2019-01-14T07:10:15.532Z,1003.45
2019-01-14T07:11:15.519Z,1003.44
2019-01-14T07:12:15.534Z,1003.49
2019-01-14T07:13:15.501Z,1003.50
2019-01-14T07:14:15.487Z,1003.52
2019-01-14T07:15:15.472Z,1003.54
2019-01-14T07:16:15.461Z,1003.56
2019-01-14T07:17:15.476Z,1003.65
2019-01-14T07:18:15.441Z,1003.69
2019-01-14T07:19:15.427Z,1003.66
2019-01-14T07:20:15.418Z,1003.67
2019-01-14T07:21:15.406Z,1003.72
2019-01-14T07:22:15.418Z,1003.75
2019-01-14T07:23:15.383Z,1003.72
2019-01-14T07:24:15.375Z,1003.75
2019-01-14T07:25:15.361Z,1003.73
2019-01-14T07:26:15.348Z,1003.72
2019-01-14T07:27:15.362Z,1003.78
2019-01-14T07:28:15.326Z,1003.77
2019-01-14T07:29:15.315Z,1003.82
2019-01-14T07:30:15.306Z,1003.79
2019-01-14T07:31:15.291Z,1003.78
2019-01-14T07:32:15.304Z,1003.80
2019-01-14T07:33:15.269Z,1003.80
2019-01-14T07:34:15.258Z,1003.86
2019-01-14T07:35:15.245Z,1003.84
2019-01-14T07:36:15.234Z,1003.90
2019-01-14T07:37:15.248Z,1003.77
2019-01-14T07:38:15.213Z,1003.79
2019-01-14T07:39:15.200Z,1003.80
2019-01-14T07:40:15.188Z,1003.86
2019-01-14T07:41:15.177Z,1003.94
2019-01-14T07:42:15.190Z,1003.83
2019-01-14T07:43:15.155Z,1003.88
2019-01-14T07:44:15.146Z,1003.81
2019-01-14T07:45:15.135Z,1003.80
2019-01-14T07:46:15.123Z,1003.81
2019-01-14T07:47:15.113Z,1003.85
2019-01-14T07:48:15.123Z,1003.88
2019-01-14T07:49:15.091Z,1003.93
2019-01-14T07:50:15.083Z,1003.90
2019-01-14T07:51:15.066Z,1003.95
2019-01-14T07:52:15.056Z,1003.90
2019-01-14T07:53:15.072Z,1003.97
2019-01-14T07:54:15.032Z,1003.93
2019-01-14T07:55:15.057Z,1004.03
2019-01-14T07:56:15.009Z,1004.08
2019-01-14T07:57:15.000Z,1004.03
2019-01-14T07:58:15.010Z,1004.08
2019-01-14T07:59:14.974Z,1004.09
2019-01-14T08:00:14.967Z,1004.20
2019-01-14T08:01:14.953Z,1004.15
2019-01-14T08:02:14.941Z,1004.15
2019-01-14T08:03:14.954Z,1004.26
2019-01-14T08:04:14.922Z,1004.24
2019-01-14T08:05:14.910Z,1004.21
2019-01-14T08:06:14.933Z,1004.28
2019-01-14T08:07:14.884Z,1004.23
2019-01-14T08:08:14.915Z,1004.26
2019-01-14T08:09:14.865Z,1004.28
2019-01-14T08:10:14.849Z,1004.30
2019-01-14T08:11:14.840Z,1004.25
2019-01-14T08:12:14.827Z,1004.29
2019-01-14T08:13:14.844Z,1004.42
2019-01-14T08:14:14.804Z,1004.34
2019-01-14T08:15:14.793Z,1004.36
2019-01-14T08:16:14.781Z,1004.36
2019-01-14T08:17:14.770Z,1004.35
2019-01-14T08:18:16.722Z,1004.37
2019-01-14T08:19:14.746Z,1004.43
2019-01-14T08:20:14.736Z,1004.51
2019-01-14T08:21:14.724Z,1004.52
2019-01-14T08:22:14.717Z,1004.46
2019-01-14T08:23:14.723Z,1004.52
2019-01-14T08:24:14.690Z,1004.54
2019-01-14T08:25:14.680Z,1004.58
2019-01-14T08:26:14.672Z,1004.57
2019-01-14T08:27:14.656Z,1004.58
2019-01-14T08:28:14.669Z,1004.59
2019-01-14T08:29:14.632Z,1004.60
2019-01-14T08:30:14.621Z,1004.66
2019-01-14T08:31:14.609Z,1004.71
2019-01-14T08:32:14.602Z,1004.75
2019-01-14T08:33:14.638Z,1004.78
2019-01-14T08:34:14.575Z,1004.75
2019-01-14T08:35:14.565Z,1004.76
2019-01-14T08:36:14.554Z,1004.78
2019-01-14T08:37:14.543Z,1004.74
2019-01-14T08:38:21.018Z,1004.79
2019-01-14T08:39:15.518Z,1004.86
2019-01-14T08:40:14.507Z,1004.78
2019-01-14T08:41:14.497Z,1004.89
2019-01-14T08:42:14.486Z,1004.81
2019-01-14T08:43:14.498Z,1004.78
2019-01-14T08:44:14.461Z,1004.90
2019-01-14T08:45:14.450Z,1004.90
2019-01-14T08:46:14.439Z,1004.95
2019-01-14T08:47:14.428Z,1005.03
2019-01-14T08:48:14.418Z,1005.12
2019-01-14T08:49:14.428Z,1005.12
2019-01-14T08:50:14.395Z,1005.15
2019-01-14T08:51:14.385Z,1005.18
2019-01-14T08:52:14.372Z,1005.23
2019-01-14T08:53:14.398Z,1005.23
2019-01-14T08:54:14.348Z,1005.32
2019-01-14T08:55:14.336Z,1005.32
2019-01-14T08:56:14.328Z,1005.25
2019-01-14T08:57:14.315Z,1005.25
2019-01-14T08:58:14.306Z,1005.32
2019-01-14T08:59:14.319Z,1005.29
2019-01-14T09:00:14.280Z,1005.33
2019-01-14T09:01:14.270Z,1005.33
2019-01-14T09:02:14.260Z,1005.40
2019-01-14T09:03:14.248Z,1005.44
2019-01-14T09:04:14.260Z,1005.45
2019-01-14T09:05:14.225Z,1005.48
2019-01-14T09:06:14.214Z,1005.48
2019-01-14T09:07:14.202Z,1005.53
2019-01-14T09:08:14.194Z,1005.56
2019-01-14T09:09:14.203Z,1005.66
2019-01-14T09:10:14.167Z,1005.72
2019-01-14T09:11:14.156Z,1005.70
2019-01-14T09:12:14.152Z,1005.79
2019-01-14T09:13:14.134Z,1005.71
2019-01-14T09:14:14.145Z,1005.80
2019-01-14T09:15:14.115Z,1005.88
2019-01-14T09:16:14.101Z,1005.79
2019-01-14T09:17:14.087Z,1005.87
2019-01-14T09:18:14.077Z,1005.88
2019-01-14T09:19:14.091Z,1005.91
2019-01-14T09:20:14.057Z,1006.04
2019-01-14T09:21:14.044Z,1005.93
2019-01-14T09:22:14.031Z,1005.95
2019-01-14T09:23:14.019Z,1006.00
2019-01-14T09:24:14.031Z,1006.04
2019-01-14T09:25:14.007Z,1006.11
2019-01-14T09:26:13.985Z,1006.12
2019-01-14T09:27:13.973Z,1006.20
2019-01-14T09:28:13.963Z,1006.28
2019-01-14T09:29:13.974Z,1006.32
2019-01-14T09:30:13.943Z,1006.43
2019-01-14T09:31:13.927Z,1006.45
2019-01-14T09:32:13.916Z,1006.46
2019-01-14T09:33:13.906Z,1006.52
2019-01-14T09:34:13.897Z,1006.45
2019-01-14T09:35:13.905Z,1006.46
2019-01-14T09:36:13.877Z,1006.35
2019-01-14T09:37:13.867Z,1006.38
2019-01-14T09:38:13.847Z,1006.34
2019-01-14T09:39:13.838Z,1006.33
2019-01-14T09:40:13.851Z,1006.33
2019-01-14T09:41:13.817Z,1006.29
2019-01-14T09:42:13.801Z,1006.30
2019-01-14T09:43:13.790Z,1006.32
2019-01-14T09:44:13.782Z,1006.29
2019-01-14T09:45:13.791Z,1006.32
2019-01-14T09:46:13.757Z,1006.30
2019-01-14T09:47:13.747Z,1006.27
2019-01-14T09:48:13.735Z,1006.24
2019-01-14T09:49:13.720Z,1006.26
2019-01-14T09:50:13.733Z,1006.22
2019-01-14T09:51:13.697Z,1006.25
2019-01-14T09:52:13.686Z,1006.30
2019-01-14T09:53:13.675Z,1006.28
2019-01-14T09:54:13.667Z,1006.33
2019-01-14T09:55:13.676Z,1006.35
2019-01-14T09:56:13.641Z,1006.35
2019-01-14T09:57:13.632Z,1006.30
2019-01-14T09:58:13.619Z,1006.29
2019-01-14T09:59:13.607Z,1006.31
2019-01-14T10:00:13.620Z,1006.31
2019-01-14T10:01:13.583Z,1006.35
2019-01-14T10:02:13.573Z,1006.40
2019-01-14T10:03:13.612Z,1006.45
2019-01-14T10:04:13.550Z,1006.46
2019-01-14T10:05:13.561Z,1006.42
2019-01-14T10:06:13.526Z,1006.42
2019-01-14T10:07:13.517Z,1006.45
2019-01-14T10:08:13.503Z,1006.47
2019-01-14T10:09:13.490Z,1006.48
2019-01-14T10:10:13.506Z,1006.47
2019-01-14T10:11:13.472Z,1006.50
2019-01-14T10:12:13.457Z,1006.54
2019-01-14T10:13:13.445Z,1006.51
2019-01-14T10:14:13.434Z,1006.52
2019-01-14T10:15:13.448Z,1006.54
2019-01-14T10:16:13.412Z,1006.58
2019-01-14T10:17:13.399Z,1006.55
2019-01-14T10:18:13.416Z,1006.60
2019-01-14T10:19:13.377Z,1006.61
2019-01-14T10:20:13.415Z,1006.63
2019-01-14T10:21:13.354Z,1006.65
2019-01-14T10:22:13.343Z,1006.66
2019-01-14T10:23:13.332Z,1006.67
2019-01-14T10:24:13.317Z,1006.68
2019-01-14T10:25:13.339Z,1006.71
2019-01-14T10:26:13.298Z,1006.73
2019-01-14T10:27:13.286Z,1006.73
2019-01-14T10:28:13.283Z,1006.72
2019-01-14T10:29:13.263Z,1006.76
2019-01-14T10:30:13.258Z,1006.79
2019-01-14T10:31:13.273Z,1006.80
2019-01-14T10:32:13.229Z,1006.77
2019-01-14T10:33:13.221Z,1006.78
2019-01-14T10:34:13.208Z,1006.82
2019-01-14T10:35:13.198Z,1006.81
2019-01-14T10:36:13.214Z,1006.82
2019-01-14T10:37:13.174Z,1006.84
2019-01-14T10:38:13.163Z,1006.80
2019-01-14T10:39:13.151Z,1006.81
2019-01-14T10:40:13.140Z,1006.87
2019-01-14T10:41:13.152Z,1006.87
2019-01-14T10:42:13.117Z,1006.86
2019-01-14T10:43:13.106Z,1006.85
2019-01-14T10:44:13.094Z,1006.86
2019-01-14T10:45:13.082Z,1006.89
2019-01-14T10:46:13.095Z,1006.97
2019-01-14T10:47:13.060Z,1006.99
2019-01-14T10:48:13.048Z,1006.98
2019-01-14T10:49:13.037Z,1007.00
2019-01-14T10:50:13.025Z,1006.98
2019-01-14T10:51:13.041Z,1007.01
2019-01-14T10:52:13.006Z,1006.98
2019-01-14T10:53:12.991Z,1006.99
2019-01-14T10:54:13.030Z,1007.00
2019-01-14T10:55:12.969Z,1006.97
2019-01-14T10:56:12.985Z,1007.01
2019-01-14T10:57:12.945Z,1007.09
2019-01-14T10:58:12.933Z,1007.05
2019-01-14T10:59:12.923Z,1007.08
2019-01-14T11:00:12.912Z,1007.09
2019-01-14T11:01:12.923Z,1007.11
2019-01-14T11:02:12.888Z,1007.11
2019-01-14T11:03:12.881Z,1007.20
2019-01-14T11:04:13.348Z,1007.14
2019-01-14T11:05:12.856Z,1007.19
2019-01-14T11:06:12.868Z,1007.19
2019-01-14T11:07:12.831Z,1007.19
2019-01-14T11:08:12.821Z,1007.17
2019-01-14T11:09:12.809Z,1007.27
2019-01-14T11:10:12.798Z,1007.28
2019-01-14T11:11:12.812Z,1007.25
2019-01-14T11:12:12.786Z,1007.22
2019-01-14T11:13:12.766Z,1007.24
2019-01-14T11:14:12.753Z,1007.22
2019-01-14T11:15:12.742Z,1007.22
2019-01-14T11:16:12.757Z,1007.25
2019-01-14T11:17:12.719Z,1007.22
2019-01-14T11:18:12.708Z,1007.24
2019-01-14T11:19:12.709Z,1007.24
2019-01-14T11:20:12.686Z,1007.26
2019-01-14T11:21:14.414Z,1007.31
2019-01-14T11:22:12.698Z,1007.30
2019-01-14T11:23:12.658Z,1007.24
2019-01-14T11:24:12.642Z,1007.28
2019-01-14T11:25:12.631Z,1007.26
2019-01-14T11:26:12.644Z,1007.30
2019-01-14T11:27:12.608Z,1007.36
2019-01-14T11:28:12.598Z,1007.38
2019-01-14T11:29:12.584Z,1007.40
2019-01-14T11:30:14.146Z,1007.39
2019-01-14T11:31:12.565Z,1007.45
2019-01-14T11:32:12.573Z,1007.46
2019-01-14T11:33:12.538Z,1007.39
2019-01-14T11:34:12.528Z,1007.42
2019-01-14T11:35:12.517Z,1007.43
2019-01-14T11:36:12.507Z,1007.44
2019-01-14T11:37:12.517Z,1007.41
2019-01-14T11:38:12.484Z,1007.50
2019-01-14T11:39:12.470Z,1007.46
2019-01-14T11:40:12.483Z,1007.43
2019-01-14T11:41:12.448Z,1007.38
2019-01-14T11:42:12.460Z,1007.36
2019-01-14T11:43:12.427Z,1007.29
2019-01-14T11:44:12.417Z,1007.34
2019-01-14T11:45:12.403Z,1007.38
2019-01-14T11:46:12.404Z,1007.37
2019-01-14T11:47:12.403Z,1007.39
2019-01-14T11:48:12.369Z,1007.42
2019-01-14T11:49:12.357Z,1007.46
2019-01-14T11:50:12.346Z,1007.64
2019-01-14T11:51:12.334Z,1007.85
2019-01-14T11:52:12.347Z,1008.04
2019-01-14T11:53:12.319Z,1008.20
2019-01-14T11:54:12.315Z,1008.11
2019-01-14T11:55:12.288Z,1008.05
2019-01-14T11:56:12.277Z,1008.04
2019-01-14T11:57:12.292Z,1007.96
2019-01-14T11:58:12.258Z,1008.01
2019-01-14T11:59:12.245Z,1007.96
2019-01-14T12:00:12.230Z,1007.98
2019-01-14T12:01:12.249Z,1007.91
2019-01-14T12:02:12.232Z,1007.92
2019-01-14T12:03:12.199Z,1007.83
2019-01-14T12:04:12.191Z,1007.94
2019-01-14T12:05:12.179Z,1007.92
2019-01-14T12:06:12.165Z,1007.92
2019-01-14T12:07:12.177Z,1007.86
2019-01-14T12:08:12.141Z,1007.85
2019-01-14T12:09:12.617Z,1007.91